Time;durP1;ratioP1;P1;durP2;ratioP2;P2;SDS_P1;SDS_P2;PMS_P1;PMS_P2;Temp;Humidity;BMP_temperature;BMP_pressure;BME280_temperature;BME280_humidity;BME280_pressure;Samples;Min_cycle;Max_cycle;Signal;HPM_P1;HPM_P2
2023/03/25 00:02:57;;;;;;;14.38;2.85;;;10.50;99.90;;;;;;5001649;28;20487;-93
2023/03/25 00:08:49;;;;;;;13.63;2.15;;;10.50;99.90;;;;;;5056568;28;20028;-94
2023/03/25 00:11:41;;;;;;;14.05;2.60;;;10.50;99.90;;;;;;5050688;28;20116;-94
2023/03/25 00:14:25;;;;;;;15.75;2.60;;;10.60;99.90;;;;;;5041112;28;20064;-91
2023/03/25 00:17:16;;;;;;;14.27;2.38;;;10.60;99.90;;;;;;5056050;28;20040;-93
2023/03/25 00:20:10;;;;;;;15.70;3.38;;;11.60;99.90;;;;;;5055447;28;20389;-92
2023/03/25 00:23:04;;;;;;;23.17;2.97;;;10.50;99.90;;;;;;5018123;28;20482;-90
2023/03/25 00:25:32;;;;;;;14.90;3.05;;;10.40;99.90;;;;;;5055341;28;20034;-92
2023/03/25 00:28:09;;;;;;;19.42;4.38;;;11.20;99.90;;;;;;5056177;28;20021;-92
2023/03/25 00:31:01;;;;;;;10.10;2.25;;;11.20;99.90;;;;;;5111235;23;20053;-92
2023/03/25 00:33:30;;;;;;;11.88;2.20;;;10.60;99.90;;;;;;5054069;28;20017;-88
2023/03/25 00:36:50;;;;;;;22.58;3.10;;;11.10;99.90;;;;;;5055460;28;20040;-92
2023/03/25 00:43:01;;;;;;;13.82;2.53;;;10.00;99.90;;;;;;4995329;28;20045;-93
2023/03/25 00:45:30;;;;;;;17.33;2.55;;;10.50;99.90;;;;;;4907932;29;20036;-94
2023/03/25 00:47:57;;;;;;;17.00;2.83;;;11.80;99.90;;;;;;4960911;28;20039;-92
2023/03/25 00:50:40;;;;;;;13.35;2.05;;;10.50;99.90;;;;;;4975388;28;20042;-93
2023/03/25 00:53:07;;;;;;;12.02;1.80;;;11.10;99.90;;;;;;4974606;28;20047;-92
2023/03/25 00:55:44;;;;;;;17.63;2.38;;;10.70;99.90;;;;;;4984772;28;20114;-92
2023/03/25 00:58:21;;;;;;;12.68;1.92;;;10.40;99.90;;;;;;5055747;28;20048;-92
2023/03/25 01:00:54;;;;;;;13.95;2.47;;;11.00;99.90;;;;;;5054863;28;20606;-93
2023/03/25 01:06:37;;;;;;;18.20;2.55;;;10.40;99.90;;;;;;5055742;28;20091;-92
2023/03/25 01:09:15;;;;;;;8.13;1.98;;;10.40;99.90;;;;;;5062953;28;20025;-91
2023/03/25 01:11:51;;;;;;;14.85;2.35;;;10.60;99.90;;;;;;5076888;28;20092;-92
2023/03/25 01:14:19;;;;;;;12.40;2.25;;;10.60;99.90;;;;;;5067332;28;20748;-92
2023/03/25 01:16:54;;;;;;;20.45;2.53;;;11.10;99.90;;;;;;5055088;28;20075;-92
2023/03/25 01:19:23;;;;;;;13.20;2.88;;;11.00;99.90;;;;;;5054946;28;20021;-93
2023/03/25 01:21:49;;;;;;;16.08;2.80;;;9.40;99.90;;;;;;5054218;28;20021;-91
2023/03/25 01:24:15;;;;;;;10.77;2.33;;;10.70;99.90;;;;;;5054593;28;20024;-91
2023/03/25 01:26:44;;;;;;;20.15;2.90;;;10.60;99.90;;;;;;5054529;28;20032;-92
2023/03/25 01:29:29;;;;;;;9.70;2.50;;;10.20;99.90;;;;;;5054108;28;20052;-92
2023/03/25 01:31:57;;;;;;;14.32;2.63;;;11.00;99.90;;;;;;5054578;28;20037;-93
2023/03/25 01:34:23;;;;;;;14.13;2.92;;;9.50;99.90;;;;;;5054556;28;20047;-91
2023/03/25 01:36:49;;;;;;;11.13;2.42;;;10.90;99.90;;;;;;5053563;28;20469;-92
2023/03/25 01:39:17;;;;;;;10.48;3.25;;;10.90;99.90;;;;;;5054152;28;20029;-91
2023/03/25 01:41:46;;;;;;;13.15;3.03;;;10.80;99.90;;;;;;5053997;28;20021;-92
2023/03/25 01:44:23;;;;;;;13.43;3.00;;;10.90;99.90;;;;;;5053803;28;20021;-91
2023/03/25 01:46:51;;;;;;;14.95;2.05;;;10.10;99.90;;;;;;5054049;28;20025;-90
2023/03/25 01:49:37;;;;;;;13.30;2.67;;;11.20;99.90;;;;;;5053485;28;20023;-91
2023/03/25 01:52:38;;;;;;;21.08;3.17;;;10.00;99.90;;;;;;5054473;28;20051;-91
2023/03/25 01:55:04;;;;;;;10.77;2.47;;;10.00;99.90;;;;;;5046216;28;20048;-93
2023/03/25 01:57:33;;;;;;;21.08;2.53;;;10.00;99.90;;;;;;5053628;28;20043;-91
2023/03/25 01:59:59;;;;;;;17.35;2.60;;;9.50;99.90;;;;;;5054186;28;20025;-91
2023/03/25 02:02:33;;;;;;;19.67;3.47;;;11.30;99.90;;;;;;5054061;28;20017;-90
2023/03/25 02:05:06;;;;;;;20.30;2.88;;;11.20;99.90;;;;;;5047168;28;20477;-91
2023/03/25 02:07:46;;;;;;;14.70;2.88;;;9.90;99.90;;;;;;5053865;28;20029;-93
2023/03/25 02:10:18;;;;;;;12.73;3.10;;;10.30;99.90;;;;;;5053682;28;20473;-92
2023/03/25 02:12:48;;;;;;;17.77;3.75;;;10.00;99.90;;;;;;5053971;28;20392;-93
2023/03/25 02:15:17;;;;;;;12.52;2.50;;;10.70;99.90;;;;;;5053949;28;20091;-91
2023/03/25 02:18:19;;;;;;;14.32;2.90;;;10.60;99.90;;;;;;5053148;28;20029;-93
2023/03/25 02:20:56;;;;;;;19.00;2.65;;;9.50;99.90;;;;;;5053595;28;20029;-91
2023/03/25 02:24:18;;;;;;;30.17;3.38;;;10.00;99.90;;;;;;5054035;28;20151;-92
2023/03/25 02:27:26;;;;;;;20.80;3.40;;;10.00;99.90;;;;;;5050788;28;20484;-91
2023/03/25 02:30:09;;;;;;;19.48;2.53;;;10.00;99.90;;;;;;4987672;28;20059;-92
2023/03/25 02:32:57;;;;;;;20.55;2.85;;;10.00;99.90;;;;;;5052927;28;20469;-91
2023/03/25 02:35:48;;;;;;;12.93;2.95;;;9.90;99.90;;;;;;5071092;28;20017;-91
2023/03/25 02:38:42;;;;;;;18.08;2.63;;;9.90;99.90;;;;;;5059929;28;20021;-90
2023/03/25 02:41:36;;;;;;;10.70;2.53;;;9.90;99.90;;;;;;5053581;28;20025;-91
2023/03/25 02:44:41;;;;;;;10.75;2.40;;;9.90;99.90;;;;;;5053754;28;20047;-92
2023/03/25 02:47:12;;;;;;;14.95;3.00;;;9.80;99.90;;;;;;5052885;28;20028;-91
2023/03/25 02:50:19;;;;;;;11.90;2.60;;;10.30;99.90;;;;;;5053323;28;20028;-91
2023/03/25 02:53:09;;;;;;;18.77;3.13;;;9.90;99.90;;;;;;4971967;28;20022;-92
2023/03/25 02:55:40;;;;;;;13.73;2.58;;;10.00;99.90;;;;;;5050135;28;20559;-92
2023/03/25 02:58:20;;;;;;;;;;;10.80;99.90;;;;;;5053837;28;20025;-91
2023/03/25 03:00:51;;;;;;;10.60;2.83;;;9.90;99.90;;;;;;5052784;28;19905;-93
2023/03/25 03:03:32;;;;;;;19.00;3.15;;;9.90;99.90;;;;;;5053691;28;20107;-93
2023/03/25 03:06:01;;;;;;;27.23;3.42;;;10.00;99.90;;;;;;5053665;28;20017;-92
2023/03/25 03:08:47;;;;;;;15.93;3.58;;;11.10;99.90;;;;;;5067463;28;20029;-92
2023/03/25 03:11:42;;;;;;;17.05;2.67;;;11.30;99.90;;;;;;5058121;28;20567;-92
2023/03/25 03:14:44;;;;;;;17.63;3.03;;;8.90;99.90;;;;;;5057569;28;20036;-92
2023/03/25 03:17:17;;;;;;;21.30;2.88;;;9.90;99.90;;;;;;5057438;28;20033;-91
2023/03/25 03:20:07;;;;;;;17.50;2.97;;;9.90;99.90;;;;;;5057431;28;20069;-92
2023/03/25 03:22:51;;;;;;;14.65;2.72;;;10.00;99.90;;;;;;5056655;28;20051;-92
2023/03/25 03:25:40;;;;;;;16.52;2.85;;;10.60;99.90;;;;;;5053729;28;20025;-91
2023/03/25 03:28:23;;;;;;;17.63;3.20;;;9.90;99.90;;;;;;5056606;28;20028;-91
2023/03/25 03:31:26;;;;;;;23.55;3.17;;;10.40;99.90;;;;;;5056443;28;20091;-92
2023/03/25 03:34:21;;;;;;;23.25;3.95;;;9.90;99.90;;;;;;5015265;28;20044;-92
2023/03/25 03:36:51;;;;;;;20.25;3.40;;;9.90;99.90;;;;;;5051695;28;20036;-91
2023/03/25 03:39:23;;;;;;;14.68;2.80;;;10.50;99.90;;;;;;5038948;28;20017;-92
2023/03/25 03:42:36;;;;;;;18.70;3.22;;;10.70;99.90;;;;;;5056247;28;20025;-92
2023/03/25 03:45:11;;;;;;;24.30;3.63;;;9.80;99.90;;;;;;5056701;28;20104;-90
2023/03/25 03:48:06;;;;;;;18.52;3.15;;;9.80;99.90;;;;;;5048267;28;20037;-92
2023/03/25 03:50:55;;;;;;;24.38;3.45;;;10.40;99.90;;;;;;4993261;28;20489;-91
2023/03/25 03:53:44;;;;;;;26.75;3.63;;;10.50;99.90;;;;;;5036927;28;20033;-92
2023/03/25 03:56:37;;;;;;;24.85;3.75;;;9.70;99.90;;;;;;5036263;28;20029;-92
2023/03/25 03:59:37;;;;;;;14.68;2.80;;;9.90;99.90;;;;;;5052252;28;20006;-92
2023/03/25 04:02:27;;;;;;;26.45;4.93;;;10.30;99.90;;;;;;5042185;28;20049;-93
2023/03/25 04:04:59;;;;;;;18.52;3.67;;;9.50;99.90;;;;;;5036332;28;20037;-93
2023/03/25 04:10:57;;;;;;;22.13;4.35;;;9.60;99.90;;;;;;5036250;28;20040;-92
2023/03/25 04:13:43;;;;;;;31.08;5.25;;;9.50;99.90;;;;;;5036204;28;20092;-94
2023/03/25 04:16:36;;;;;;;14.60;3.50;;;9.60;99.90;;;;;;5036411;28;20034;-91
2023/03/25 04:19:47;;;;;;;23.08;3.90;;;11.00;99.90;;;;;;5035258;28;20057;-92
2023/03/25 04:22:16;;;;;;;23.75;3.33;;;10.10;99.90;;;;;;5036345;28;20159;-93
2023/03/25 04:24:43;;;;;;;23.40;3.58;;;10.30;99.90;;;;;;5035356;28;20075;-91
2023/03/25 04:27:12;;;;;;;25.48;4.63;;;10.50;99.90;;;;;;5036158;28;20100;-91
2023/03/25 04:30:08;;;;;;;26.48;3.25;;;10.40;99.90;;;;;;5035381;28;20021;-91
2023/03/25 04:32:39;;;;;;;16.35;3.08;;;9.80;99.90;;;;;;5044602;22;20408;-91
2023/03/25 04:35:08;;;;;;;18.98;3.70;;;10.40;99.90;;;;;;5055878;28;20040;-91
2023/03/25 04:40:05;;;;;;;23.50;3.53;;;9.90;99.90;;;;;;5013807;28;20131;-89
2023/03/25 04:42:41;;;;;;;21.17;2.95;;;9.80;99.90;;;;;;5015477;28;20484;-92
2023/03/25 04:45:13;;;;;;;24.75;4.50;;;9.70;99.90;;;;;;5015446;28;20026;-91
2023/03/25 04:47:53;;;;;;;22.88;3.67;;;9.80;99.90;;;;;;5015863;28;20036;-92
2023/03/25 04:50:31;;;;;;;30.35;4.55;;;10.20;99.90;;;;;;5015967;28;20390;-91
2023/03/25 04:52:59;;;;;;;22.35;3.83;;;10.10;99.90;;;;;;5015045;28;20116;-92
2023/03/25 04:55:25;;;;;;;15.88;3.45;;;9.90;99.90;;;;;;5015992;28;20112;-91
2023/03/25 04:58:14;;;;;;;25.60;3.38;;;10.60;99.90;;;;;;5015580;28;20104;-91
2023/03/25 05:00:53;;;;;;;25.20;4.68;;;10.00;99.90;;;;;;5014439;28;20038;-92
2023/03/25 05:03:23;;;;;;;22.93;4.13;;;10.20;99.90;;;;;;5015682;28;20046;-91
2023/03/25 05:06:10;;;;;;;31.52;5.30;;;9.80;99.90;;;;;;5020566;28;20022;-90
2023/03/25 05:08:45;;;;;;;23.35;4.18;;;9.40;99.90;;;;;;5015539;28;20030;-91
2023/03/25 05:11:21;;;;;;;37.47;4.70;;;9.70;99.90;;;;;;5015975;28;20517;-92
2023/03/25 05:13:47;;;;;;;27.77;4.43;;;9.20;99.90;;;;;;5014642;28;20073;-92
2023/03/25 05:16:15;;;;;;;24.33;3.92;;;10.50;99.90;;;;;;5015880;28;20025;-90
2023/03/25 05:18:44;;;;;;;26.88;4.20;;;10.10;99.90;;;;;;5015377;28;20026;-91
2023/03/25 05:21:10;;;;;;;20.10;4.32;;;11.00;99.90;;;;;;5014701;28;20030;-92
2023/03/25 05:23:43;;;;;;;38.72;4.30;;;9.80;99.90;;;;;;5034256;28;20508;-91
2023/03/25 05:26:11;;;;;;;22.63;3.83;;;10.60;99.90;;;;;;5018506;28;20083;-91
2023/03/25 05:28:38;;;;;;;25.38;4.28;;;10.30;99.90;;;;;;5014630;28;20030;-93
2023/03/25 05:31:47;;;;;;;27.30;4.38;;;10.30;99.90;;;;;;5015108;28;20026;-91
2023/03/25 05:34:24;;;;;;;42.53;5.68;;;9.80;99.90;;;;;;4999194;28;20046;-92
2023/03/25 05:36:58;;;;;;;27.77;3.83;;;11.10;99.90;;;;;;5014770;28;20049;-91
2023/03/25 05:39:31;;;;;;;30.42;4.63;;;9.80;99.90;;;;;;5013812;28;20046;-91
2023/03/25 05:42:22;;;;;;;47.08;6.30;;;10.90;99.90;;;;;;5014507;28;20045;-92
2023/03/25 05:44:57;;;;;;;23.25;4.70;;;9.10;99.90;;;;;;5014395;28;20058;-91
2023/03/25 05:53:16;;;;;;;14.70;3.55;;;9.40;99.90;;;;;;4993250;28;20122;-92
2023/03/25 05:55:50;;;;;;;15.25;3.00;;;9.50;99.90;;;;;;4995304;28;20076;-91
2023/03/25 05:58:25;;;;;;;24.27;4.32;;;9.70;99.90;;;;;;5054793;28;20049;-92
2023/03/25 06:00:56;;;;;;;26.35;2.75;;;10.40;99.90;;;;;;5054223;28;20029;-93
2023/03/25 06:03:37;;;;;;;30.88;4.10;;;9.80;99.90;;;;;;5050881;28;20027;-91
2023/03/25 06:06:12;;;;;;;23.35;3.63;;;9.80;99.90;;;;;;5054046;28;20454;-91
2023/03/25 06:08:58;;;;;;;28.65;4.60;;;10.40;99.90;;;;;;5053948;28;20109;-92
2023/03/25 06:11:45;;;;;;;21.17;3.60;;;10.50;99.90;;;;;;5023196;22;20042;-93
2023/03/25 06:14:17;;;;;;;24.92;4.72;;;9.80;99.90;;;;;;5001200;28;20034;-91
2023/03/25 06:16:56;;;;;;;32.67;4.70;;;10.60;99.90;;;;;;5013476;28;20025;-91
2023/03/25 06:19:25;;;;;;;24.27;4.50;;;10.40;99.90;;;;;;5014199;28;20100;-90
2023/03/25 06:22:12;;;;;;;25.33;5.13;;;9.80;99.90;;;;;;5009254;28;20454;-93
2023/03/25 06:24:40;;;;;;;19.17;3.75;;;10.10;99.90;;;;;;5011501;28;20060;-91
2023/03/25 06:27:20;;;;;;;23.08;4.38;;;9.70;99.90;;;;;;5050623;22;20068;-90
2023/03/25 06:29:50;;;;;;;;;;;10.50;99.90;;;;;;5052473;28;20127;-90
2023/03/25 06:32:49;;;;;;;26.40;3.58;;;9.60;99.90;;;;;;5050482;28;19917;-87
2023/03/25 06:35:18;;;;;;;28.38;5.05;;;9.90;99.90;;;;;;5050245;28;20487;-89
2023/03/25 06:41:07;;;;;;;38.10;3.65;;;9.50;99.90;;;;;;5034132;28;20122;-90
2023/03/25 06:47:21;;;;;;;19.80;3.38;;;9.60;99.90;;;;;;5001866;28;20042;-89
2023/03/25 06:49:47;;;;;;;25.88;3.63;;;9.60;99.90;;;;;;5051176;28;20068;-90
2023/03/25 06:52:21;;;;;;;33.10;4.25;;;10.30;99.90;;;;;;5050693;28;20021;-90
2023/03/25 06:54:50;;;;;;;17.80;3.78;;;9.30;99.90;;;;;;5048827;28;20037;-89
2023/03/25 06:57:21;;;;;;;22.35;3.30;;;9.70;99.90;;;;;;5047695;28;20452;-89
2023/03/25 06:59:51;;;;;;;20.20;3.72;;;10.00;99.90;;;;;;5043312;28;20021;-90
2023/03/25 07:02:23;;;;;;;14.93;3.17;;;9.60;99.90;;;;;;5049319;28;20036;-89
2023/03/25 07:07:57;;;;;;;24.70;3.53;;;9.60;99.90;;;;;;4975842;28;20035;-91
2023/03/25 07:10:31;;;;;;;20.90;4.45;;;9.60;99.90;;;;;;5041748;28;20059;-90
2023/03/25 07:12:57;;;;;;;20.20;2.78;;;9.60;99.90;;;;;;5041394;28;20013;-89
2023/03/25 07:15:31;;;;;;;25.95;4.75;;;9.60;99.90;;;;;;5041592;28;20083;-91
2023/03/25 07:18:07;;;;;;;26.73;4.25;;;9.60;99.90;;;;;;5041632;28;20370;-89
2023/03/25 07:20:39;;;;;;;28.20;4.38;;;9.60;99.90;;;;;;5040706;28;20029;-89
2023/03/25 07:23:18;;;;;;;34.63;4.38;;;9.70;99.90;;;;;;5042380;28;20473;-89
2023/03/25 07:25:52;;;;;;;27.92;4.28;;;9.70;99.90;;;;;;5042219;28;20028;-90
2023/03/25 07:28:18;;;;;;;23.00;3.80;;;9.70;99.90;;;;;;5038151;28;20045;-89
2023/03/25 07:30:53;;;;;;;23.48;4.03;;;9.80;99.90;;;;;;5049578;28;20029;-91
2023/03/25 07:33:34;;;;;;;26.63;4.78;;;9.80;99.90;;;;;;5043996;22;20069;-90
2023/03/25 07:36:00;;;;;;;29.63;3.92;;;9.80;99.90;;;;;;5032680;28;20033;-89
2023/03/25 07:38:37;;;;;;;17.25;3.42;;;9.80;99.90;;;;;;5032499;28;20496;-90
2023/03/25 07:41:20;;;;;;;;;;;;;;;;;;;;;
2023/03/25 07:49:18;;;;;;;26.17;5.28;;;9.90;99.90;;;;;;5030211;28;20057;-89
2023/03/25 07:52:40;;;;;;;;;;;;;;;;;;;;;
2023/03/25 07:55:17;;;;;;;27.73;4.03;;;9.10;99.90;;;;;;4967825;28;20064;-89
2023/03/25 07:58:02;;;;;;;;;;;;;;;;;;;;;
2023/03/25 08:00:29;;;;;;;21.52;4.07;;;10.70;99.90;;;;;;5000629;28;20104;-90
2023/03/25 08:03:11;;;;;;;29.33;4.85;;;10.00;99.90;;;;;;5035505;28;20048;-90
2023/03/25 08:05:49;;;;;;;31.05;4.15;;;10.00;99.90;;;;;;5035573;28;20033;-89
2023/03/25 08:08:42;;;;;;;28.77;4.82;;;10.10;99.90;;;;;;5035962;28;20071;-90
2023/03/25 08:11:15;;;;;;;30.08;4.90;;;10.30;99.90;;;;;;5037106;28;20029;-89
2023/03/25 08:13:47;;;;;;;30.38;4.43;;;10.10;99.90;;;;;;5038735;28;20022;-90
2023/03/25 08:16:16;;;;;;;34.78;4.82;;;10.10;99.90;;;;;;5035439;28;20061;-90
2023/03/25 08:18:52;;;;;;;30.02;5.05;;;10.00;99.90;;;;;;5035557;28;20473;-89
2023/03/25 08:21:53;;;;;;;27.98;4.03;;;10.10;99.90;;;;;;5036779;28;20037;-90
2023/03/25 08:24:31;;;;;;;29.75;4.63;;;10.10;99.90;;;;;;5034924;28;20029;-90
2023/03/25 08:27:15;;;;;;;37.15;5.53;;;9.60;99.90;;;;;;5035602;28;20389;-89
2023/03/25 08:29:53;;;;;;;28.40;4.63;;;9.90;99.90;;;;;;5034725;28;20030;-92
2023/03/25 08:40:51;;;;;;;32.72;4.57;;;10.10;99.90;;;;;;5033846;28;20065;-90
2023/03/25 08:43:29;;;;;;;38.38;5.20;;;9.60;99.90;;;;;;5033935;28;20025;-90
2023/03/25 08:46:41;;;;;;;37.45;4.22;;;10.20;99.90;;;;;;5034618;28;20029;-90
2023/03/25 08:49:25;;;;;;;32.17;4.60;;;9.90;99.90;;;;;;5002531;28;20488;-92
2023/03/25 08:52:09;;;;;;;29.02;4.65;;;10.20;99.90;;;;;;5031480;28;20025;-92
2023/03/25 08:55:27;;;;;;;41.30;6.28;;;9.90;99.90;;;;;;5032331;28;20494;-90
2023/03/25 08:58:46;;;;;;;;;;;;;;;;;;;;;
2023/03/25 09:06:59;;;;;;;38.35;5.78;;;10.30;99.90;;;;;;5054681;28;20060;-86
2023/03/25 09:10:16;;;;;;;33.05;5.97;;;10.00;99.90;;;;;;5054040;28;20109;-90
2023/03/25 09:13:06;;;;;;;33.45;5.78;;;10.20;99.90;;;;;;5048004;28;20082;-90
2023/03/25 10:03:30;;;;;;;26.70;5.00;;;10.70;99.90;;;;;;5009604;28;20054;-89
2023/03/25 10:06:25;;;;;;;18.52;3.47;;;10.80;99.90;;;;;;5009053;28;20087;-89
2023/03/25 10:09:40;;;;;;;22.83;4.15;;;10.80;99.90;;;;;;5007609;28;20033;-88
2023/03/25 10:13:05;;;;;;;20.70;3.95;;;10.30;99.90;;;;;;5011697;28;20219;-91
2023/03/25 10:22:53;;;;;;;25.70;4.22;;;10.90;99.90;;;;;;5011864;28;20053;-90
2023/03/25 10:25:32;;;;;;;51.22;5.95;;;10.90;99.90;;;;;;5002717;28;20032;-87
2023/03/25 10:28:18;;;;;;;19.15;3.90;;;10.90;99.90;;;;;;4998440;28;20497;-91
2023/03/25 10:30:56;;;;;;;17.27;4.20;;;11.80;99.90;;;;;;5007783;28;20022;-90
2023/03/25 10:33:44;;;;;;;22.95;4.75;;;11.60;99.90;;;;;;5012075;28;20025;-92
2023/03/25 10:36:27;;;;;;;30.88;4.35;;;11.00;99.90;;;;;;5012294;28;20119;-91
2023/03/25 10:38:54;;;;;;;25.42;4.00;;;12.00;99.90;;;;;;5011960;28;20112;-90
2023/03/25 10:41:39;;;;;;;;;;;;;;;;;;;;;
2023/03/25 10:44:10;;;;;;;22.15;4.15;;;10.40;99.90;;;;;;5015194;23;20038;-92
2023/03/25 10:47:48;;;;;;;24.20;4.07;;;11.00;99.90;;;;;;4991684;28;20101;-90
2023/03/25 10:50:40;;;;;;;28.30;3.10;;;10.80;99.90;;;;;;4992691;28;20038;-91
2023/03/25 10:53:25;;;;;;;15.77;3.13;;;11.10;99.90;;;;;;4991835;28;20049;-92
2023/03/25 10:56:00;;;;;;;32.00;3.92;;;11.00;99.90;;;;;;4991881;28;20053;-90
2023/03/25 10:58:36;;;;;;;25.83;4.25;;;11.10;99.90;;;;;;5006067;28;20057;-89
2023/03/25 11:01:13;;;;;;;23.92;3.95;;;11.70;99.90;;;;;;5005086;28;20030;-89
2023/03/25 11:03:53;;;;;;;23.77;3.70;;;11.60;99.90;;;;;;4993982;28;20117;-91
2023/03/25 11:06:33;;;;;;;29.00;5.32;;;11.80;99.90;;;;;;4992624;28;20054;-90
2023/03/25 11:09:37;;;;;;;24.40;4.63;;;11.40;99.90;;;;;;4992908;28;20057;-90
2023/03/25 11:12:53;;;;;;;31.85;4.22;;;10.60;99.90;;;;;;5013247;23;20073;-88
2023/03/25 11:18:39;;;;;;;27.27;5.03;;;12.00;99.90;;;;;;5002469;28;20540;-88
2023/03/25 11:21:22;;;;;;;28.33;4.47;;;11.30;99.90;;;;;;5016701;23;20060;-90
2023/03/25 11:27:05;;;;;;;;;;;;;;;;;;;;;
2023/03/25 11:29:34;;;;;;;19.27;4.57;;;10.80;99.90;;;;;;4940545;28;20034;-92
2023/03/25 12:41:49;;;;;;;15.90;3.17;;;11.40;99.90;;;;;;4993655;28;20283;-91
2023/03/25 12:51:03;;;;;;;30.38;4.00;;;11.50;99.90;;;;;;5065645;22;20062;-93
2023/03/25 12:53:50;;;;;;;19.50;3.80;;;11.50;99.90;;;;;;5013593;23;20073;-91
2023/03/25 12:56:50;;;;;;;24.88;3.10;;;11.90;99.90;;;;;;5008190;28;20049;-92
2023/03/25 13:00:04;;;;;;;17.35;3.00;;;11.70;99.90;;;;;;5015945;28;20030;-92
2023/03/25 13:03:25;;;;;;;13.13;2.38;;;11.40;99.90;;;;;;5028273;22;20162;-93
2023/03/25 13:26:07;;;;;;;;;;;;;;;;;;;;;
2023/03/25 14:48:36;;;;;;;16.00;2.80;;;11.90;99.90;;;;;;2090241;23;20307;31
2023/03/25 14:54:55;;;;;;;16.27;3.30;;;11.90;99.90;;;;;;4898185;29;20052;-91
2023/03/25 15:00:44;;;;;;;14.02;3.15;;;12.00;99.90;;;;;;4999278;23;20050;-92
2023/03/25 15:03:21;;;;;;;21.85;3.80;;;11.90;99.90;;;;;;5004805;28;20010;-92
2023/03/25 15:06:03;;;;;;;16.90;3.35;;;13.30;99.90;;;;;;4994556;28;20023;-93
2023/03/25 15:08:48;;;;;;;21.67;3.85;;;12.70;99.90;;;;;;5134335;23;20149;-93
2023/03/25 15:12:01;;;;;;;23.67;4.05;;;11.90;99.90;;;;;;5041326;28;20029;-92
2023/03/25 15:14:34;;;;;;;22.10;3.15;;;12.00;99.90;;;;;;4979802;28;20035;-95
2023/03/25 15:23:31;;;;;;;16.77;3.53;;;11.80;99.90;;;;;;4973222;28;20043;-93
2023/03/25 15:26:51;;;;;;;25.08;4.28;;;11.00;99.90;;;;;;4974238;28;20029;-91
2023/03/25 15:29:57;;;;;;;;;;;11.70;99.90;;;;;;4922417;29;20046;-94
2023/03/25 15:32:53;;;;;;;20.58;3.53;;;11.70;99.90;;;;;;4913687;29;19962;-91
2023/03/25 15:35:47;;;;;;;;;;;;;;;;;;;;;
2023/03/25 15:46:31;;;;;;;23.00;3.42;;;11.40;99.90;;;;;;4976323;23;20078;-90
2023/03/25 15:56:22;;;;;;;23.30;3.22;;;11.40;99.90;;;;;;4995190;23;20062;-90
2023/03/25 16:02:25;;;;;;;20.67;3.40;;;11.40;99.90;;;;;;5000223;28;20068;-91
2023/03/25 16:05:04;;;;;;;;;;;11.70;99.90;;;;;;5002626;28;20066;-93
2023/03/25 16:07:31;;;;;;;26.40;3.40;;;11.50;99.90;;;;;;5004819;28;19932;-92
2023/03/25 16:10:19;;;;;;;22.20;3.88;;;11.50;99.90;;;;;;4999585;28;20037;-92
2023/03/25 16:12:57;;;;;;;21.95;3.47;;;11.50;99.90;;;;;;5050996;23;20013;-91
2023/03/25 16:15:39;;;;;;;21.42;4.57;;;12.50;99.90;;;;;;4987302;28;20030;-91
2023/03/25 16:18:08;;;;;;;16.33;4.00;;;13.00;99.90;;;;;;4985771;28;20038;-92
2023/03/25 16:20:36;;;;;;;14.18;2.67;;;12.20;99.90;;;;;;4988093;28;20049;-93
2023/03/25 16:23:43;;;;;;;20.48;3.75;;;11.50;99.90;;;;;;4989681;28;20029;-92
2023/03/25 16:26:55;;;;;;;17.30;3.47;;;11.60;99.90;;;;;;4970163;28;20033;-93
2023/03/25 16:29:23;;;;;;;16.15;2.83;;;11.60;99.90;;;;;;4989689;28;20023;-93
2023/03/25 16:31:58;;;;;;;18.48;3.72;;;12.40;99.90;;;;;;4988968;28;20014;-91
2023/03/25 17:53:06;;;;;;;27.60;4.47;;;11.10;99.90;;;;;;4950097;29;20064;-91
2023/03/25 18:00:44;;;;;;;32.30;4.82;;;11.00;99.90;;;;;;5128189;23;20059;-91
2023/03/25 19:34:30;;;;;;;19.98;3.97;;;10.50;99.90;;;;;;5142419;23;20138;-95
2023/03/25 19:37:01;;;;;;;24.65;3.33;;;11.30;99.90;;;;;;4923210;29;20031;-95
2023/03/25 19:39:33;;;;;;;18.30;2.90;;;10.50;99.90;;;;;;4956217;29;20023;-95
2023/03/25 19:42:07;;;;;;;20.77;4.78;;;10.50;99.90;;;;;;4955778;29;20024;-94
2023/03/25 19:47:51;;;;;;;19.63;3.35;;;10.50;99.90;;;;;;5004955;23;20059;-94
2023/03/25 19:50:54;;;;;;;22.58;3.83;;;10.50;99.90;;;;;;4965973;23;20051;-94
2023/03/25 19:53:23;;;;;;;18.90;3.40;;;10.50;99.90;;;;;;4925078;28;20038;-94
2023/03/25 19:56:12;;;;;;;22.30;3.55;;;11.00;99.90;;;;;;4959423;28;20031;-95
2023/03/25 19:59:15;;;;;;;20.42;3.75;;;10.30;99.90;;;;;;4951230;29;20369;-94
2023/03/25 20:01:53;;;;;;;15.82;3.33;;;9.90;99.90;;;;;;4881096;29;20033;-95
2023/03/25 20:04:40;;;;;;;;;;;;;;;;;;;;;
2023/03/25 20:07:35;;;;;;;19.15;3.30;;;11.00;99.90;;;;;;4947625;29;20039;-94
2023/03/25 20:10:15;;;;;;;22.75;3.80;;;9.70;99.90;;;;;;4960170;29;20027;-95
2023/03/25 20:12:46;;;;;;;22.83;4.18;;;11.20;99.90;;;;;;4959862;29;20106;-95
2023/03/25 20:18:45;;;;;;;19.70;3.85;;;10.80;99.90;;;;;;4929157;29;20112;-94
2023/03/25 20:21:43;;;;;;;22.05;4.10;;;11.40;99.90;;;;;;4906373;28;20124;-93
2023/03/25 20:27:17;;;;;;;26.38;4.00;;;10.20;99.90;;;;;;4964178;23;20062;-95
2023/03/25 20:30:08;;;;;;;;;;;;;;;;;;;;;
2023/03/25 20:32:39;;;;;;;18.92;4.20;;;10.50;99.90;;;;;;4956494;23;20061;-94
2023/03/25 20:35:14;;;;;;;28.33;4.95;;;10.80;99.90;;;;;;4959124;29;20039;-94
2023/03/25 20:38:01;;;;;;;22.23;4.72;;;10.40;99.90;;;;;;4966017;23;20059;-95
2023/03/25 20:40:29;;;;;;;21.60;5.07;;;10.20;99.90;;;;;;4971560;23;20063;-94
2023/03/25 20:43:19;;;;;;;;;;;;;;;;;;;;;
2023/03/25 20:45:46;;;;;;;23.60;4.40;;;9.80;99.90;;;;;;4957782;28;20047;-93
2023/03/25 20:48:42;;;;;;;17.90;4.50;;;11.00;99.90;;;;;;5457249;23;20055;-96
2023/03/25 20:51:20;;;;;;;22.95;4.28;;;10.20;99.90;;;;;;4960269;28;20035;-94
2023/03/25 20:53:56;;;;;;;18.60;3.97;;;10.90;99.90;;;;;;4961683;28;20035;-92
2023/03/25 20:58:59;;;;;;;14.02;3.65;;;10.30;99.90;;;;;;4987429;23;20558;-94
2023/03/25 21:01:25;;;;;;;12.55;3.38;;;11.30;99.90;;;;;;4949996;28;20106;-95
2023/03/25 21:03:54;;;;;;;14.60;2.92;;;10.20;99.90;;;;;;4971752;28;20016;-94
2023/03/25 21:06:46;;;;;;;16.73;2.80;;;10.20;99.90;;;;;;5291690;23;20044;-96
2023/03/25 21:09:26;;;;;;;20.27;3.67;;;10.10;99.90;;;;;;4967092;29;20039;-95
2023/03/25 21:11:52;;;;;;;19.40;4.55;;;10.50;99.90;;;;;;4958306;29;20023;-94
2023/03/25 21:20:04;;;;;;;26.75;5.22;;;10.00;99.90;;;;;;4958264;28;20031;-96
2023/03/25 21:22:33;;;;;;;24.67;4.80;;;11.00;99.90;;;;;;4958257;28;20023;-95
2023/03/25 21:25:04;;;;;;;29.17;5.82;;;11.30;99.90;;;;;;4958007;28;20059;-95
2023/03/25 21:27:32;;;;;;;;;;;10.00;99.90;;;;;;4959810;29;20098;-96
2023/03/25 21:30:26;;;;;;;31.40;5.65;;;10.00;99.90;;;;;;4974158;23;19958;-95
2023/03/25 21:36:28;;;;;;;;;;;;;;;;;;;;;
2023/03/25 21:39:56;;;;;;;38.77;6.07;;;10.60;99.90;;;;;;4959262;23;20055;-95
2023/03/25 21:43:04;;;;;;;;;;;;;;;;;;;;;
2023/03/25 21:46:14;;;;;;;;;;;;;;;;;;;;;
2023/03/25 21:48:45;;;;;;;28.55;5.18;;;10.00;99.90;;;;;;4946489;29;20124;-95
2023/03/25 21:51:19;;;;;;;32.60;5.50;;;11.20;99.90;;;;;;4958196;29;20023;-94
2023/03/25 21:53:54;;;;;;;27.23;4.82;;;9.90;99.90;;;;;;4960424;23;20055;-96
2023/03/25 21:56:45;;;;;;;25.13;5.63;;;9.60;99.90;;;;;;4958517;29;20038;-94
2023/03/25 21:59:24;;;;;;;22.25;4.75;;;10.00;99.90;;;;;;4957962;29;20030;-95
2023/03/25 22:02:07;;;;;;;22.90;3.83;;;9.80;99.90;;;;;;4957912;29;20384;-94
2023/03/25 22:04:33;;;;;;;15.65;3.78;;;11.20;99.90;;;;;;4958085;28;20028;-95
2023/03/25 22:07:00;;;;;;;21.27;4.53;;;9.90;99.90;;;;;;4957481;28;20447;-94
2023/03/25 22:09:28;;;;;;;19.92;3.28;;;9.80;99.90;;;;;;5234345;23;20035;-94
2023/03/25 22:12:34;;;;;;;12.80;2.63;;;10.50;99.90;;;;;;5228934;23;20083;-94
2023/03/25 22:15:10;;;;;;;18.27;2.95;;;9.70;99.90;;;;;;4956998;29;20035;-94
2023/03/25 22:18:10;;;;;;;14.35;2.60;;;9.80;99.90;;;;;;4957233;28;20023;-94
2023/03/25 22:20:39;;;;;;;18.65;2.72;;;10.90;99.90;;;;;;4881993;29;20553;-93
2023/03/25 22:23:23;;;;;;;14.10;2.15;;;10.30;99.90;;;;;;5021157;23;20035;-93
2023/03/25 22:26:06;;;;;;;18.05;3.38;;;8.90;99.90;;;;;;4980386;23;20051;-94
2023/03/25 22:29:15;;;;;;;11.50;2.95;;;9.80;99.90;;;;;;4968342;29;20038;-93
2023/03/25 22:31:49;;;;;;;17.63;2.72;;;9.40;99.90;;;;;;4923254;28;20039;-94
2023/03/25 22:34:27;;;;;;;13.95;2.13;;;10.00;99.90;;;;;;4957162;29;20031;-95
2023/03/25 22:37:03;;;;;;;12.30;3.05;;;9.90;99.90;;;;;;4956522;29;20039;-95
2023/03/25 22:44:00;;;;;;;;;;;;;;;;;;;;;
2023/03/25 22:46:39;;;;;;;;;;;;;;;;;;;;;
2023/03/25 22:49:10;;;;;;;23.60;4.03;;;9.90;99.90;;;;;;4963634;23;20058;-92
2023/03/25 22:51:40;;;;;;;;;;;10.40;99.90;;;;;;4957432;29;20398;-95
2023/03/25 22:54:11;;;;;;;26.73;4.40;;;9.90;99.90;;;;;;4956265;28;19914;-95
2023/03/25 22:57:07;;;;;;;;;;;;;;;;;;;;;